createdAt,value
2018-07-01T00:01:13.781Z,94148.98
2018-07-01T00:03:43.309Z,94145.98
2018-07-01T00:06:12.570Z,94144.73
2018-07-01T00:08:42.091Z,94148.82
2018-07-01T00:11:11.523Z,94145.42
2018-07-01T00:13:40.770Z,94148.64
2018-07-01T00:16:10.060Z,94150.48
2018-07-01T00:18:39.812Z,94149.61
2018-07-01T00:21:08.973Z,94149.41
2018-07-01T00:23:40.559Z,94153.14
2018-07-01T00:26:09.812Z,94152.12
2018-07-01T00:28:39.089Z,94153.35
2018-07-01T00:31:08.423Z,94152.86
2018-07-01T00:33:37.773Z,94157.10
2018-07-01T00:36:07.114Z,94153.09
2018-07-01T00:38:36.563Z,94152.73
2018-07-01T00:41:06.114Z,94153.30
2018-07-01T00:43:36.392Z,94156.36
2018-07-01T00:46:05.637Z,94154.31
2018-07-01T00:48:34.919Z,94150.86
2018-07-01T00:51:04.508Z,94152.73
2018-07-01T00:53:33.855Z,94151.25
2018-07-01T00:56:03.101Z,94155.91
2018-07-01T00:58:32.838Z,94160.75
2018-07-01T01:01:02.193Z,94155.87
2018-07-01T01:03:31.693Z,94155.28
2018-07-01T01:06:01.237Z,94152.23
2018-07-01T01:08:30.687Z,94157.69
2018-07-01T01:11:00.000Z,94155.22
2018-07-01T01:13:29.737Z,94156.95
2018-07-01T01:15:59.213Z,94162.36
2018-07-01T01:18:28.703Z,94160.72
2018-07-01T01:20:58.411Z,94156.08
2018-07-01T01:23:27.660Z,94155.42
2018-07-01T01:25:57.252Z,94160.84
2018-07-01T01:28:26.663Z,94157.73
2018-07-01T01:30:56.197Z,94160.50
2018-07-01T01:33:25.673Z,94157.67
2018-07-01T01:35:55.213Z,94160.20
2018-07-01T01:38:26.931Z,94162.08
2018-07-01T01:41:05.873Z,94156.53
2018-07-01T01:43:41.499Z,94152.44
2018-07-01T01:47:18.371Z,94151.52
2018-07-01T01:49:54.637Z,94153.30
2018-07-01T01:52:30.124Z,94152.79
2018-07-01T01:55:06.268Z,94153.16
2018-07-01T01:57:41.091Z,94156.78
2018-07-01T02:00:14.127Z,94160.77
2018-07-01T02:02:49.817Z,94160.16
2018-07-01T02:05:33.669Z,94160.95
2018-07-01T02:08:06.819Z,94161.68
2018-07-01T02:10:36.270Z,94156.58
2018-07-01T02:13:05.742Z,94158.35
2018-07-01T02:15:38.841Z,94151.95
2018-07-01T02:18:08.207Z,94158.06
2018-07-01T02:20:39.607Z,94158.06
2018-07-01T02:23:13.397Z,94160.95
2018-07-01T02:25:43.312Z,94164.16
2018-07-01T02:28:12.966Z,94160.38
2018-07-01T02:30:42.306Z,94154.63
2018-07-01T02:33:11.617Z,94165.22
2018-07-01T02:35:40.758Z,94160.53
2018-07-01T02:38:10.172Z,94164.73
2018-07-01T02:40:39.438Z,94161.45
2018-07-01T02:43:08.845Z,94162.32
2018-07-01T02:45:38.346Z,94164.92
2018-07-01T02:48:08.307Z,94165.69
2018-07-01T02:50:38.949Z,94166.80
2018-07-01T02:53:08.972Z,94171.89
2018-07-01T02:55:38.193Z,94172.19
2018-07-01T02:58:07.494Z,94170.87
2018-07-01T03:00:36.823Z,94166.26
2018-07-01T03:03:06.114Z,94166.41
2018-07-01T03:05:35.533Z,94173.84
2018-07-01T03:08:04.935Z,94170.70
2018-07-01T03:10:34.327Z,94173.12
2018-07-01T03:13:03.755Z,94175.21
2018-07-01T03:15:33.252Z,94176.25
2018-07-01T03:18:02.484Z,94174.81
2018-07-01T03:20:31.874Z,94177.55
2018-07-01T03:23:01.226Z,94179.85
2018-07-01T03:25:30.603Z,94175.31
2018-07-01T03:27:59.880Z,94174.53
2018-07-01T03:30:29.237Z,94175.96
2018-07-01T03:32:58.757Z,94180.59
2018-07-01T03:35:28.342Z,94182.73
2018-07-01T03:37:57.643Z,94187.21
2018-07-01T03:40:26.869Z,94179.85
2018-07-01T03:42:56.154Z,94174.83
2018-07-01T03:45:25.509Z,94170.93
2018-07-01T03:47:54.852Z,94169.63
2018-07-01T03:50:24.255Z,94174.89
2018-07-01T03:52:54.154Z,94175.91
2018-07-01T03:55:23.393Z,94176.81
2018-07-01T03:57:52.731Z,94183.59
2018-07-01T04:00:22.077Z,94183.30
2018-07-01T04:02:51.579Z,94185.83
2018-07-01T04:05:20.881Z,94186.75
2018-07-01T04:07:50.235Z,94190.20
2018-07-01T04:10:19.508Z,94189.35
2018-07-01T04:12:49.035Z,94188.84
2018-07-01T04:15:18.532Z,94189.14
2018-07-01T04:17:47.853Z,94191.31
2018-07-01T04:20:17.203Z,94192.05
2018-07-01T04:22:47.035Z,94191.89
2018-07-01T04:25:16.387Z,94190.53
2018-07-01T04:27:45.703Z,94190.03
2018-07-01T04:30:15.029Z,94191.13
2018-07-01T04:32:44.774Z,94193.13
2018-07-01T04:35:14.140Z,94190.83
2018-07-01T04:37:43.407Z,94193.92
2018-07-01T04:40:13.054Z,94193.30
2018-07-01T04:42:42.606Z,94195.07
2018-07-01T04:45:12.088Z,94191.70
2018-07-01T04:47:41.578Z,94187.13
2018-07-01T04:50:11.007Z,94193.73
2018-07-01T04:52:40.439Z,94194.01
2018-07-01T04:55:10.406Z,94200.70
2018-07-01T04:57:39.679Z,94196.08
2018-07-01T05:00:09.058Z,94201.59
2018-07-01T05:02:38.426Z,94197.56
2018-07-01T05:05:07.698Z,94191.02
2018-07-01T05:07:37.002Z,94192.34
2018-07-01T05:10:06.385Z,94196.38
2018-07-01T05:12:35.771Z,94198.81
2018-07-01T05:15:05.398Z,94196.23
2018-07-01T05:17:34.875Z,94197.48
2018-07-01T05:20:04.242Z,94199.41
2018-07-01T05:22:33.597Z,94204.21
2018-07-01T05:25:02.981Z,94209.03
2018-07-01T05:27:32.399Z,94208.89
2018-07-01T05:30:01.610Z,94207.42
2018-07-01T05:32:31.116Z,94202.67
2018-07-01T05:35:01.007Z,94204.16
2018-07-01T05:37:33.980Z,94202.78
2018-07-01T05:40:07.725Z,94198.33
2018-07-01T05:42:44.721Z,94201.84
2018-07-01T05:45:17.448Z,94200.56
2018-07-01T05:47:50.078Z,94195.81
2018-07-01T05:50:22.451Z,94198.52
2018-07-01T05:52:55.578Z,94195.51
2018-07-01T05:55:29.104Z,94195.05
2018-07-01T05:58:03.192Z,94196.01
2018-07-01T06:00:34.889Z,94196.32
2018-07-01T06:03:06.683Z,94187.96
2018-07-01T06:05:39.509Z,94194.51
2018-07-01T06:08:12.391Z,94187.16
2018-07-01T06:10:46.426Z,94183.42
2018-07-01T06:13:19.647Z,94181.69
2018-07-01T06:15:52.058Z,94185.74
2018-07-01T06:18:25.522Z,94178.11
2018-07-01T06:20:59.566Z,94174.25
2018-07-01T06:23:28.628Z,94175.12
2018-07-01T06:25:57.767Z,94171.88
2018-07-01T06:28:26.789Z,94177.06
2018-07-01T06:30:56.207Z,94179.02
2018-07-01T06:33:25.707Z,94175.63
2018-07-01T06:35:55.101Z,94173.16
2018-07-01T06:38:24.085Z,94171.55
2018-07-01T06:40:53.258Z,94173.19
2018-07-01T06:43:22.336Z,94167.18
2018-07-01T06:45:51.585Z,94174.47
2018-07-01T06:48:20.697Z,94166.23
2018-07-01T06:50:50.635Z,94161.64
2018-07-01T06:53:19.987Z,94161.98
2018-07-01T06:55:49.248Z,94161.42
2018-07-01T06:58:18.335Z,94155.77
2018-07-01T07:00:47.499Z,94156.44
2018-07-01T07:03:16.899Z,94149.59
2018-07-01T07:05:46.262Z,94150.67
2018-07-01T07:08:15.508Z,94155.64
2018-07-01T07:10:45.180Z,94159.30
2018-07-01T07:13:14.828Z,94155.93
2018-07-01T07:15:44.341Z,94155.09
2018-07-01T07:18:13.422Z,94154.57
2018-07-01T07:20:42.550Z,94144.62
2018-07-01T07:23:12.421Z,94144.33
2018-07-01T07:25:41.951Z,94149.59
2018-07-01T07:28:10.978Z,94151.22
2018-07-01T07:30:40.150Z,94147.75
2018-07-01T07:33:09.282Z,94149.56
2018-07-01T07:35:38.696Z,94138.55
2018-07-01T07:38:10.272Z,94141.97
2018-07-01T07:40:40.466Z,94133.98
2018-07-01T07:43:09.805Z,94135.92
2018-07-01T07:45:39.865Z,94135.70
2018-07-01T07:48:08.989Z,94137.77
2018-07-01T07:50:38.982Z,94125.14
2018-07-01T07:53:08.249Z,94127.30
2018-07-01T07:55:37.467Z,94124.34
2018-07-01T07:58:06.762Z,94123.51
2018-07-01T08:00:36.348Z,94127.39
2018-07-01T08:03:05.460Z,94121.56
2018-07-01T08:05:35.187Z,94117.19
2018-07-01T08:08:04.781Z,94115.52
2018-07-01T08:10:35.681Z,94114.97
2018-07-01T08:13:05.845Z,94111.28
2018-07-01T08:15:35.344Z,94105.00
2018-07-01T08:18:06.227Z,94107.84
2018-07-01T08:20:36.520Z,94099.58
2018-07-01T08:23:05.950Z,94098.36
2018-07-01T08:25:37.033Z,94098.84
2018-07-01T08:28:06.639Z,94094.27
2018-07-01T08:30:36.146Z,94091.55
2018-07-01T08:33:06.368Z,94093.55
2018-07-01T08:35:35.832Z,94096.92
2018-07-01T08:38:05.561Z,94093.98
2018-07-01T08:40:36.010Z,94091.77
2018-07-01T08:43:06.950Z,94095.99
2018-07-01T08:45:36.632Z,94091.36
2018-07-01T08:48:06.277Z,94094.39
2018-07-01T08:50:35.809Z,94093.35
2018-07-01T08:53:05.467Z,94095.86
2018-07-01T08:55:34.761Z,94087.41
2018-07-01T08:58:04.059Z,94098.93
2018-07-01T09:00:33.410Z,94079.34
2018-07-01T09:03:02.667Z,94085.64
2018-07-01T09:05:32.170Z,94083.97
2018-07-01T09:08:01.518Z,94078.16
2018-07-01T09:10:31.046Z,94086.21
2018-07-01T09:13:00.399Z,94084.11
2018-07-01T09:15:29.761Z,94084.02
2018-07-01T09:17:59.204Z,94077.16
2018-07-01T09:20:28.509Z,94075.29
2018-07-01T09:22:58.261Z,94078.28
2018-07-01T09:25:27.731Z,94068.71
2018-07-01T09:27:57.950Z,94071.35
2018-07-01T09:30:27.938Z,94071.87
2018-07-01T09:32:57.842Z,94072.88
2018-07-01T09:35:27.111Z,94071.52
2018-07-01T09:37:56.435Z,94070.87
2018-07-01T09:40:25.937Z,94070.90
2018-07-01T09:42:55.304Z,94066.10
2018-07-01T09:45:24.794Z,94062.67
2018-07-01T09:47:54.126Z,94063.76
2018-07-01T09:50:23.529Z,94064.91
2018-07-01T09:52:54.047Z,94067.34
2018-07-01T09:55:23.837Z,94055.95
2018-07-01T09:57:53.145Z,94049.06
2018-07-01T10:00:23.352Z,94065.56
2018-07-01T10:02:52.672Z,94055.99
2018-07-01T10:05:21.927Z,94056.89
2018-07-01T10:07:52.315Z,94055.30
2018-07-01T10:10:23.078Z,94049.34
2018-07-01T10:12:53.572Z,94050.30
2018-07-01T10:15:23.069Z,94058.17
2018-07-01T10:17:52.643Z,94054.92
2018-07-01T10:20:22.108Z,94051.58
2018-07-01T10:22:52.256Z,94051.42
2018-07-01T10:25:21.713Z,94052.52
2018-07-01T10:27:55.951Z,94053.56
2018-07-01T10:30:25.522Z,94054.45
2018-07-01T10:32:55.016Z,94052.67
2018-07-01T10:35:24.669Z,94052.52
2018-07-01T10:37:55.521Z,94052.34
2018-07-01T10:40:24.961Z,94049.33
2018-07-01T10:42:54.069Z,94054.34
2018-07-01T10:45:25.030Z,94047.20
2018-07-01T10:47:55.154Z,94045.72
2018-07-01T10:50:24.693Z,94043.61
2018-07-01T10:52:54.296Z,94043.25
2018-07-01T10:55:23.841Z,94032.45
2018-07-01T10:57:53.401Z,94038.33
2018-07-01T11:00:22.890Z,94036.94
2018-07-01T11:02:52.492Z,94037.59
2018-07-01T11:05:22.073Z,94034.50
2018-07-01T11:07:52.328Z,94026.52
2018-07-01T11:10:21.695Z,94034.33
2018-07-01T11:12:51.194Z,94027.63
2018-07-01T11:15:20.534Z,94025.00
2018-07-01T11:17:49.522Z,94029.25
2018-07-01T11:20:18.702Z,94023.34
2018-07-01T11:22:47.809Z,94020.71
2018-07-01T11:25:18.126Z,94025.08
2018-07-01T11:27:47.424Z,94015.09
2018-07-01T11:30:16.783Z,94015.14
2018-07-01T11:32:46.403Z,94019.59
2018-07-01T11:35:16.263Z,94016.47
2018-07-01T11:37:45.790Z,94021.50
2018-07-01T11:40:15.267Z,94024.63
2018-07-01T11:42:44.731Z,94023.49
2018-07-01T11:45:14.777Z,94012.06
2018-07-01T11:47:46.027Z,94009.63
2018-07-01T11:50:16.224Z,94018.00
2018-07-01T11:52:45.558Z,94006.98
2018-07-01T11:55:14.831Z,94012.10
2018-07-01T11:57:45.124Z,94010.61
2018-07-01T12:00:16.473Z,94010.44
2018-07-01T12:02:45.836Z,94009.14
2018-07-01T12:05:17.186Z,94009.96
2018-07-01T12:07:45.464Z,94005.05
2018-07-01T12:10:14.830Z,94004.80
2018-07-01T12:12:44.457Z,94003.91
2018-07-01T12:15:14.812Z,94002.59
2018-07-01T12:17:44.345Z,94001.09
2018-07-01T12:20:14.475Z,94001.95
2018-07-01T12:22:43.819Z,94004.38
2018-07-01T12:25:13.143Z,94002.41
2018-07-01T12:27:45.119Z,94011.70
2018-07-01T12:30:14.779Z,94006.21
2018-07-01T12:32:44.190Z,93998.67
2018-07-01T12:35:14.363Z,94003.00
2018-07-01T12:37:43.720Z,94001.93
2018-07-01T12:40:13.091Z,94001.75
2018-07-01T12:42:42.724Z,94005.48
2018-07-01T12:45:12.960Z,94000.19
2018-07-01T12:47:43.771Z,93991.55
2018-07-01T12:50:13.676Z,93997.33
2018-07-01T12:52:43.199Z,94000.95
2018-07-01T12:55:12.739Z,93995.70
2018-07-01T12:57:42.111Z,93998.53
2018-07-01T13:00:11.380Z,94002.59
2018-07-01T13:02:40.947Z,93997.20
2018-07-01T13:05:10.934Z,93994.82
2018-07-01T13:07:40.858Z,93989.79
2018-07-01T13:10:10.476Z,93985.70
2018-07-01T13:12:39.754Z,93982.59
2018-07-01T13:15:09.903Z,93987.58
2018-07-01T13:17:39.581Z,93978.73
2018-07-01T13:20:09.805Z,93981.26
2018-07-01T13:22:40.371Z,93987.71
2018-07-01T13:25:10.116Z,93981.43
2018-07-01T13:27:39.909Z,93979.27
2018-07-01T13:30:09.898Z,93980.05
2018-07-01T13:32:39.952Z,93970.13
2018-07-01T13:35:09.544Z,93981.81
2018-07-01T13:37:39.070Z,93971.92
2018-07-01T13:40:08.670Z,93972.13
2018-07-01T13:42:38.129Z,93976.84
2018-07-01T13:45:08.820Z,93973.83
2018-07-01T13:47:38.475Z,93974.56
2018-07-01T13:50:08.219Z,93978.81
2018-07-01T13:52:37.843Z,93977.09
2018-07-01T13:55:07.439Z,93963.80
2018-07-01T13:57:36.878Z,93961.92
2018-07-01T14:00:07.367Z,93967.88
2018-07-01T14:02:36.774Z,93975.77
2018-07-01T14:05:06.383Z,93974.40
2018-07-01T14:07:35.784Z,93968.91
2018-07-01T14:10:05.498Z,93968.38
2018-07-01T14:12:35.228Z,93975.41
2018-07-01T14:15:05.136Z,93978.43
2018-07-01T14:17:34.473Z,93974.45
2018-07-01T14:20:04.075Z,93976.08
2018-07-01T14:22:34.030Z,93980.19
2018-07-01T14:25:03.475Z,93983.66
2018-07-01T14:27:33.102Z,93979.39
2018-07-01T14:30:03.200Z,93985.97
2018-07-01T14:32:33.140Z,93982.88
2018-07-01T14:35:02.583Z,93986.38
2018-07-01T14:37:32.370Z,93987.22
2018-07-01T14:40:01.872Z,93983.59
2018-07-01T14:42:31.520Z,93989.14
2018-07-01T14:45:01.350Z,93987.09
2018-07-01T14:47:31.249Z,93987.50
2018-07-01T14:50:00.651Z,93992.45
2018-07-01T14:52:31.568Z,93987.83
2018-07-01T14:55:01.020Z,93997.36
2018-07-01T14:57:30.385Z,93996.85
2018-07-01T15:00:01.034Z,93992.59
2018-07-01T15:02:30.906Z,94002.36
2018-07-01T15:05:00.348Z,93996.88
2018-07-01T15:07:29.992Z,93995.55
2018-07-01T15:10:00.506Z,94002.33
2018-07-01T15:12:30.264Z,94001.23
2018-07-01T15:15:01.763Z,93996.45
2018-07-01T15:17:32.416Z,94005.20
2018-07-01T15:20:02.743Z,94002.06
2018-07-01T15:22:32.136Z,94001.59
2018-07-01T15:25:01.666Z,94005.80
2018-07-01T15:27:31.240Z,94005.44
2018-07-01T15:30:00.805Z,94010.23
2018-07-01T15:32:31.430Z,94012.97
2018-07-01T15:35:01.104Z,94004.73
2018-07-01T15:37:30.532Z,94006.98
2018-07-01T15:39:59.846Z,94007.85
2018-07-01T15:42:29.097Z,94004.19
2018-07-01T15:44:58.556Z,94006.04
2018-07-01T15:47:27.884Z,94009.42
2018-07-01T15:49:58.327Z,94008.66
2018-07-01T15:52:27.710Z,94008.44
2018-07-01T15:54:57.052Z,94007.09
2018-07-01T15:57:26.548Z,94006.39
2018-07-01T15:59:55.918Z,94008.56
2018-07-01T16:02:26.305Z,94005.36
2018-07-01T16:04:55.810Z,94004.82
2018-07-01T16:07:25.349Z,94012.42
2018-07-01T16:09:54.759Z,94012.09
2018-07-01T16:12:24.214Z,94010.51
2018-07-01T16:14:53.492Z,94011.16
2018-07-01T16:17:22.870Z,94016.89
2018-07-01T16:19:52.320Z,94017.17
2018-07-01T16:22:21.681Z,94012.34
2018-07-01T16:24:56.082Z,94013.80
2018-07-01T16:27:32.750Z,94016.52
2018-07-01T16:30:04.950Z,94016.70
2018-07-01T16:32:36.921Z,94012.87
2018-07-01T16:35:06.443Z,94020.89
2018-07-01T16:37:35.879Z,94024.98
2018-07-01T16:40:05.626Z,94025.15
2018-07-01T16:42:35.330Z,94023.23
2018-07-01T16:45:05.071Z,94031.58
2018-07-01T16:47:34.669Z,94029.05
2018-07-01T16:50:03.977Z,94024.89
2018-07-01T16:52:33.417Z,94034.56
2018-07-01T16:55:03.723Z,94036.36
2018-07-01T16:57:35.026Z,94038.30
2018-07-01T17:00:05.774Z,94042.83
2018-07-01T17:02:35.461Z,94045.63
2018-07-01T17:05:05.587Z,94049.52
2018-07-01T17:07:35.334Z,94048.66
2018-07-01T17:10:05.161Z,94048.47
2018-07-01T17:12:34.582Z,94056.55
2018-07-01T17:15:05.486Z,94058.36
2018-07-01T17:17:35.145Z,94061.81
2018-07-01T17:20:05.647Z,94062.84
2018-07-01T17:22:35.384Z,94067.71
2018-07-01T17:25:05.358Z,94073.42
2018-07-01T17:27:35.580Z,94070.57
2018-07-01T17:30:04.977Z,94086.44
2018-07-01T17:32:39.302Z,94091.48
2018-07-01T17:35:09.746Z,94089.28
2018-07-01T17:37:39.105Z,94093.82
2018-07-01T17:40:08.635Z,94091.88
2018-07-01T17:42:38.743Z,94093.52
2018-07-01T17:45:08.322Z,94098.02
2018-07-01T17:47:37.579Z,94094.36
2018-07-01T17:50:07.021Z,94092.00
2018-07-01T17:52:37.375Z,94091.82
2018-07-01T17:55:07.040Z,94103.66
2018-07-01T17:57:36.283Z,94107.65
2018-07-01T18:00:06.170Z,94105.62
2018-07-01T18:02:37.120Z,94110.63
2018-07-01T18:05:06.908Z,94108.83
2018-07-01T18:07:37.199Z,94116.19
2018-07-01T18:10:08.307Z,94115.47
2018-07-01T18:12:38.670Z,94119.67
2018-07-01T18:15:08.309Z,94123.61
2018-07-01T18:17:39.042Z,94124.39
2018-07-01T18:20:08.796Z,94132.27
2018-07-01T18:23:09.756Z,94125.68
2018-07-01T18:25:11.504Z,94133.55
2018-07-01T18:27:44.762Z,94139.06
2018-07-01T18:30:10.250Z,94136.96
2018-07-01T18:32:40.725Z,94137.20
2018-07-01T18:35:12.528Z,94144.04
2018-07-01T18:37:42.672Z,94141.12
2018-07-01T18:40:12.907Z,94144.48
2018-07-01T18:42:44.874Z,94143.16
2018-07-01T18:45:14.964Z,94140.53
2018-07-01T18:47:45.900Z,94146.55
2018-07-01T18:50:16.399Z,94156.44
2018-07-01T18:52:46.078Z,94157.16
2018-07-01T18:55:17.018Z,94156.89
2018-07-01T18:57:47.925Z,94160.06
2018-07-01T19:00:19.103Z,94165.44
2018-07-01T19:02:49.078Z,94169.09
2018-07-01T19:05:18.907Z,94175.44
2018-07-01T19:07:49.701Z,94182.61
2018-07-01T19:10:19.606Z,94186.28
2018-07-01T19:12:49.420Z,94185.78
2018-07-01T19:15:20.029Z,94184.44
2018-07-01T19:17:49.991Z,94187.17
2018-07-01T19:20:20.040Z,94199.13
2018-07-01T19:22:50.928Z,94197.88
2018-07-01T19:25:20.898Z,94204.95
2018-07-01T19:27:50.574Z,94212.73
2018-07-01T19:30:20.612Z,94213.06
2018-07-01T19:32:50.435Z,94213.03
2018-07-01T19:35:21.399Z,94221.68
2018-07-01T19:37:53.075Z,94224.24
2018-07-01T19:40:24.579Z,94225.44
2018-07-01T19:42:54.173Z,94226.68
2018-07-01T19:45:23.871Z,94229.05
2018-07-01T19:47:53.484Z,94229.14
2018-07-01T19:50:24.174Z,94236.72
2018-07-01T19:52:54.229Z,94230.59
2018-07-01T19:55:25.341Z,94234.54
2018-07-01T19:57:54.851Z,94243.05
2018-07-01T20:00:25.147Z,94243.61
2018-07-01T20:02:58.871Z,94237.41
2018-07-01T20:05:28.480Z,94237.06
2018-07-01T20:07:58.587Z,94242.55
2018-07-01T20:10:29.663Z,94240.89
2018-07-01T20:12:59.212Z,94246.24
2018-07-01T20:15:29.228Z,94241.52
2018-07-01T20:17:59.728Z,94243.63
2018-07-01T20:20:29.786Z,94244.89
2018-07-01T20:22:59.311Z,94243.47
2018-07-01T20:25:30.032Z,94242.67
2018-07-01T20:28:00.166Z,94248.77
2018-07-01T20:30:29.633Z,94249.25
2018-07-01T20:32:59.089Z,94253.55
2018-07-01T20:35:28.873Z,94247.91
2018-07-01T20:37:58.551Z,94244.42
2018-07-01T20:40:28.255Z,94245.02
2018-07-01T20:42:58.416Z,94249.27
2018-07-01T20:45:28.058Z,94252.48
2018-07-01T20:47:59.274Z,94251.00
2018-07-01T20:50:29.169Z,94250.67
2018-07-01T20:52:59.113Z,94252.44
2018-07-01T20:55:29.301Z,94247.88
2018-07-01T20:57:58.701Z,94252.34
2018-07-01T21:00:28.235Z,94254.99
2018-07-01T21:02:57.748Z,94257.39
2018-07-01T21:05:27.302Z,94254.87
2018-07-01T21:07:56.932Z,94264.48
2018-07-01T21:10:26.297Z,94260.03
2018-07-01T21:12:55.928Z,94257.08
2018-07-01T21:15:25.517Z,94261.29
2018-07-01T21:17:55.338Z,94264.53
2018-07-01T21:20:24.820Z,94259.72
2018-07-01T21:22:54.530Z,94257.06
2018-07-01T21:25:23.934Z,94264.71
2018-07-01T21:27:53.656Z,94264.27
2018-07-01T21:30:22.997Z,94266.77
2018-07-01T21:32:52.329Z,94264.63
2018-07-01T21:35:22.062Z,94257.30
2018-07-01T21:37:51.690Z,94258.09
2018-07-01T21:40:21.250Z,94266.26
2018-07-01T21:42:51.526Z,94262.83
2018-07-01T21:45:21.595Z,94257.79
2018-07-01T21:47:51.286Z,94259.31
2018-07-01T21:50:20.906Z,94260.91
2018-07-01T21:52:50.340Z,94252.97
2018-07-01T21:55:19.853Z,94251.44
2018-07-01T21:57:49.581Z,94249.66
2018-07-01T22:00:23.928Z,94251.05
2018-07-01T22:02:53.384Z,94255.34
2018-07-01T22:05:22.756Z,94252.00
2018-07-01T22:07:53.063Z,94250.77
2018-07-01T22:10:34.573Z,94249.45
2018-07-01T22:13:08.392Z,94254.46
2018-07-01T22:15:48.553Z,94254.46
2018-07-01T22:18:18.530Z,94247.20
2018-07-01T22:20:48.782Z,94254.97
2018-07-01T22:23:18.199Z,94255.31
2018-07-01T22:25:47.689Z,94250.81
2018-07-01T22:28:17.417Z,94251.42
2018-07-01T22:30:46.802Z,94254.54
2018-07-01T22:33:16.290Z,94247.78
2018-07-01T22:35:45.605Z,94251.30
2018-07-01T22:38:16.143Z,94252.16
2018-07-01T22:40:46.335Z,94251.93
2018-07-01T22:43:15.879Z,94251.99
2018-07-01T22:45:45.444Z,94251.88
2018-07-01T22:48:15.130Z,94253.13
2018-07-01T22:50:45.222Z,94254.54
2018-07-01T22:53:14.872Z,94248.02
2018-07-01T22:55:45.170Z,94249.84
2018-07-01T22:58:14.398Z,94247.80
2018-07-01T23:00:43.752Z,94248.53
2018-07-01T23:03:18.593Z,94250.23
2018-07-01T23:05:48.225Z,94241.72
2018-07-01T23:08:18.186Z,94236.58
2018-07-01T23:10:48.360Z,94238.03
2018-07-01T23:13:17.840Z,94241.94
2018-07-01T23:15:47.106Z,94237.52
2018-07-01T23:18:16.551Z,94238.03
2018-07-01T23:20:45.989Z,94233.45
2018-07-01T23:23:15.485Z,94239.16
2018-07-01T23:25:44.878Z,94239.32
2018-07-01T23:28:14.426Z,94245.16
2018-07-01T23:30:45.315Z,94240.64
2018-07-01T23:33:15.051Z,94245.05
2018-07-01T23:35:44.708Z,94244.25
2018-07-01T23:38:14.617Z,94238.95
2018-07-01T23:40:44.215Z,94239.46
2018-07-01T23:43:13.680Z,94236.05
2018-07-01T23:45:43.384Z,94233.58
2018-07-01T23:48:12.810Z,94228.59
2018-07-01T23:50:42.260Z,94235.40
2018-07-01T23:53:11.706Z,94233.30
2018-07-01T23:55:41.452Z,94230.42
2018-07-01T23:58:10.842Z,94232.09
